Time;durP1;ratioP1;P1;durP2;ratioP2;P2;SDS_P1;SDS_P2;PMS_P1;PMS_P2;Temp;Humidity;BMP_temperature;BMP_pressure;BME280_temperature;BME280_humidity;BME280_pressure;Samples;Min_cycle;Max_cycle;Signal;HPM_P1;HPM_P2
2023/10/19 00:01:18;;;;;;;19.70;11.90;;;;;;;8.02;92.39;94919.97;5050297;28;20185;-71
2023/10/19 00:03:49;;;;;;;20.93;12.27;;;;;;;7.98;91.95;94916.91;5050147;28;20175;-71
2023/10/19 00:06:16;;;;;;;20.27;12.10;;;;;;;7.96;91.96;94906.63;5050196;28;20186;-71
2023/10/19 00:08:43;;;;;;;16.77;11.13;;;;;;;7.96;92.49;94909.25;5050139;28;20626;-71
2023/10/19 00:11:10;;;;;;;16.60;10.80;;;;;;;7.99;92.83;94902.00;5050085;28;20179;-71
2023/10/19 00:13:40;;;;;;;17.07;10.33;;;;;;;7.95;92.43;94906.84;5048754;28;20171;-71
2023/10/19 00:16:16;;;;;;;16.73;9.73;;;;;;;7.96;92.65;94904.00;5049004;28;20187;-71
2023/10/19 00:18:42;;;;;;;17.53;10.40;;;;;;;7.91;92.59;94893.31;5049951;28;20537;-71
2023/10/19 00:21:23;;;;;;;14.80;9.90;;;;;;;7.93;92.11;94893.94;5049967;28;20260;-71
2023/10/19 00:23:55;;;;;;;16.77;10.33;;;;;;;7.90;91.61;94896.09;5054370;28;20174;-71
2023/10/19 00:26:20;;;;;;;15.80;9.40;;;;;;;7.85;91.60;94886.22;5069598;28;20186;-71
2023/10/19 00:28:49;;;;;;;15.30;9.40;;;;;;;7.87;91.50;94889.44;5069463;28;20547;-71
2023/10/19 00:31:15;;;;;;;18.60;10.27;;;;;;;7.81;92.49;94881.53;5069529;28;20749;-71
2023/10/19 00:33:40;;;;;;;14.83;9.13;;;;;;;7.83;92.47;94882.16;5069452;28;20257;-71
2023/10/19 00:36:13;;;;;;;17.77;10.37;;;;;;;7.81;92.76;94884.97;5069571;28;20195;-71
2023/10/19 00:38:39;;;;;;;16.03;9.47;;;;;;;7.81;92.67;94884.16;5069568;28;20779;-71
2023/10/19 00:43:46;;;;;;;16.10;10.38;;;;;;;7.77;91.87;94880.31;5049170;28;20411;-71
2023/10/19 00:48:53;;;;;;;14.37;9.07;;;;;;;7.72;92.19;94880.88;5049774;28;20261;-71
2023/10/19 00:53:55;;;;;;;16.40;10.20;;;;;;;7.71;92.24;94884.50;5049185;28;20247;-71
2023/10/19 00:56:25;;;;;;;13.70;9.70;;;;;;;7.69;91.96;94880.47;5049173;28;20215;-71
2023/10/19 00:59:00;;;;;;;14.63;9.50;;;;;;;7.66;91.82;94878.22;5049243;28;20226;-71
2023/10/19 01:01:28;;;;;;;15.23;8.37;;;;;;;7.64;91.72;94878.41;5049281;28;20637;-71
2023/10/19 01:03:58;;;;;;;14.15;9.20;;;;;;;7.48;91.58;94874.28;5048948;28;20423;-71
2023/10/19 01:06:25;;;;;;;16.63;9.57;;;;;;;7.45;91.68;94879.09;5049333;28;20175;-71
2023/10/19 01:08:52;;;;;;;15.50;9.07;;;;;;;7.46;92.12;94881.53;5065822;28;20193;-71
2023/10/19 01:11:21;;;;;;;16.67;8.93;;;;;;;7.46;92.09;94875.47;5069226;28;20178;-71
2023/10/19 01:13:51;;;;;;;14.63;8.70;;;;;;;7.32;91.86;94863.28;5069423;28;20195;-71
2023/10/19 01:16:20;;;;;;;17.13;9.50;;;;;;;7.49;91.69;94888.19;5060904;28;20210;-71
2023/10/19 01:18:53;;;;;;;13.47;8.93;;;;;;;7.45;91.24;94892.19;5049177;28;20241;-71
2023/10/19 01:21:37;;;;;;;14.50;9.17;;;;;;;7.39;91.12;94890.34;5048948;28;20201;-71
2023/10/19 01:24:07;;;;;;;18.17;10.17;;;;;;;7.35;91.62;94876.81;5049554;28;20171;-71
2023/10/19 01:26:37;;;;;;;16.70;10.43;;;;;;;7.31;91.87;94893.91;5068783;28;20657;-71
2023/10/19 01:29:12;;;;;;;20.07;9.60;;;;;;;7.31;92.35;94886.03;5060801;28;20554;-71
2023/10/19 01:31:39;;;;;;;17.20;9.33;;;;;;;7.31;92.63;94896.53;5053233;28;20186;-71
2023/10/19 01:34:06;;;;;;;16.07;8.93;;;;;;;7.26;92.16;94891.06;5053039;28;20566;-71
2023/10/19 01:36:44;;;;;;;17.77;9.57;;;;;;;7.26;92.31;94888.44;5053262;28;20272;-71
2023/10/19 01:39:10;;;;;;;16.57;9.17;;;;;;;7.23;92.20;94888.00;5052897;28;20198;-71
2023/10/19 01:41:37;;;;;;;17.77;9.80;;;;;;;7.23;92.05;94885.38;5052836;28;20547;-71
2023/10/19 01:44:06;;;;;;;17.57;10.00;;;;;;;7.22;92.02;94891.59;5052830;28;20182;-71
2023/10/19 01:46:34;;;;;;;21.90;10.53;;;;;;;7.17;92.01;94887.75;5052672;28;20548;-71
2023/10/19 01:49:02;;;;;;;19.33;10.40;;;;;;;7.17;91.86;94892.19;5051401;28;20178;-71
2023/10/19 01:51:30;;;;;;;21.03;12.10;;;;;;;7.13;91.96;94891.75;5052754;28;20175;-71
2023/10/19 01:53:56;;;;;;;20.00;11.25;;;;;;;7.15;92.97;94895.00;5059508;28;20417;-71
2023/10/19 01:56:23;;;;;;;19.07;10.33;;;;;;;7.13;93.44;94890.94;5072444;28;20869;-72
2023/10/19 01:58:51;;;;;;;17.80;10.00;;;;;;;7.15;93.68;94891.56;5067171;28;20215;-72
2023/10/19 02:03:55;;;;;;;17.47;9.87;;;;;;;7.17;93.28;94876.47;5072502;28;20177;-71
2023/10/19 02:06:21;;;;;;;18.53;10.57;;;;;;;7.18;92.71;94884.13;5072335;28;20296;-71
2023/10/19 02:08:55;;;;;;;20.25;12.05;;;;;;;7.19;92.92;94879.69;5071737;28;20402;-71
2023/10/19 02:11:22;;;;;;;19.57;11.40;;;;;;;7.09;92.34;94880.00;5068743;28;20162;-71
2023/10/19 02:13:51;;;;;;;21.30;11.47;;;;;;;7.16;92.70;94890.56;5051346;28;20218;-71
2023/10/19 02:16:25;;;;;;;18.33;10.83;;;;;;;7.09;91.97;94874.78;5050818;28;20547;-71
2023/10/19 02:18:51;;;;;;;20.73;11.23;;;;;;;7.15;91.70;94891.56;5052110;28;20211;-71
2023/10/19 02:21:27;;;;;;;16.40;10.10;;;;;;;7.11;91.51;94893.72;5067517;28;20260;-71
2023/10/19 02:23:52;;;;;;;17.50;10.93;;;;;;;7.10;91.77;94897.34;5072020;28;20186;-71
2023/10/19 02:26:22;;;;;;;18.73;11.90;;;;;;;7.11;91.73;94880.66;5072040;28;20181;-71
2023/10/19 02:28:51;;;;;;;20.07;11.77;;;;;;;7.13;91.43;94880.47;5071882;28;20618;-71
2023/10/19 02:31:21;;;;;;;16.80;10.10;;;;;;;7.10;91.57;94893.91;5071960;28;20197;-71
2023/10/19 02:33:51;;;;;;;16.63;10.57;;;;;;;7.06;91.65;94887.47;5070674;28;20632;-70
2023/10/19 02:36:19;;;;;;;18.07;9.80;;;;;;;7.03;91.94;94891.25;5071830;28;20178;-71
2023/10/19 02:38:48;;;;;;;24.40;11.70;;;;;;;7.03;91.99;94885.19;5070737;28;20204;-70
2023/10/19 02:41:19;;;;;;;17.87;10.80;;;;;;;7.03;91.03;94888.63;5071320;28;20178;-70
2023/10/19 02:44:00;;;;;;;17.57;11.60;;;;;;;6.97;91.25;94886.78;5060379;28;20650;-71
2023/10/19 02:46:26;;;;;;;14.10;9.93;;;;;;;6.95;91.03;94882.72;5051666;28;20178;-70
2023/10/19 02:48:52;;;;;;;18.70;10.63;;;;;;;6.90;90.95;94885.09;5051624;28;20183;-70
2023/10/19 02:51:19;;;;;;;20.77;11.83;;;;;;;6.76;91.79;94878.91;5051739;28;20555;-71
2023/10/19 02:53:44;;;;;;;17.43;10.73;;;;;;;6.74;91.88;94875.69;5051266;28;20171;-71
2023/10/19 02:56:12;;;;;;;19.80;12.10;;;;;;;6.75;91.54;94879.91;5051396;28;20187;-71
2023/10/19 02:58:42;;;;;;;18.80;12.43;;;;;;;6.73;92.03;94893.19;5051369;28;20195;-71
2023/10/19 03:01:24;;;;;;;25.10;15.63;;;;;;;6.70;92.68;94882.28;5050081;28;20241;-71
2023/10/19 03:03:59;;;;;;;24.07;13.40;;;;;;;6.67;92.56;94872.19;5051292;28;20516;-71
2023/10/19 03:06:25;;;;;;;28.40;16.70;;;;;;;6.68;92.00;94881.66;5050890;28;20174;-71
2023/10/19 03:09:04;;;;;;;26.10;16.13;;;;;;;6.64;91.99;94877.81;5050039;28;20411;-71
2023/10/19 03:11:32;;;;;;;25.90;15.97;;;;;;;6.64;92.40;94877.81;5050458;28;20308;-71
2023/10/19 03:13:58;;;;;;;23.03;13.60;;;;;;;6.57;91.96;94861.25;5050610;28;20171;-71
2023/10/19 03:16:24;;;;;;;22.50;14.50;;;;;;;6.63;92.14;94873.56;5051247;28;20650;-71
2023/10/19 03:18:50;;;;;;;24.53;15.20;;;;;;;6.65;92.34;94877.63;5054897;28;20222;-71
2023/10/19 03:21:19;;;;;;;19.10;13.83;;;;;;;6.64;92.58;94878.63;5070733;28;20232;-71
2023/10/19 03:23:45;;;;;;;20.87;13.80;;;;;;;6.60;92.45;94868.69;5070324;28;20171;-71
2023/10/19 03:28:55;;;;;;;24.77;13.23;;;;;;;6.68;91.56;94885.06;5061051;28;20316;-71
2023/10/19 03:31:25;;;;;;;23.13;13.47;;;;;;;6.57;91.75;94859.44;5050797;28;20270;-71
2023/10/19 03:33:54;;;;;;;26.37;14.13;;;;;;;6.67;91.83;94872.19;5058628;28;20201;-71
2023/10/19 03:36:26;;;;;;;21.53;14.43;;;;;;;6.68;91.92;94871.19;5065084;28;20269;-71
2023/10/19 03:38:53;;;;;;;25.35;17.23;;;;;;;6.61;92.00;94871.13;5069171;28;20847;-71
2023/10/19 03:41:21;;;;;;;27.00;16.17;;;;;;;6.63;92.12;94877.00;5070616;28;20284;-71
2023/10/19 03:43:51;;;;;;;26.70;15.47;;;;;;;6.67;92.01;94869.56;5070579;28;20174;-71
2023/10/19 03:46:28;;;;;;;28.48;18.30;;;;;;;6.49;92.88;94836.00;5069906;28;20781;-71
2023/10/19 03:48:58;;;;;;;27.13;17.10;;;;;;;6.66;92.66;94862.75;5059513;28;20167;-71
2023/10/19 03:51:26;;;;;;;27.57;15.47;;;;;;;6.63;92.05;94844.78;5050381;28;20210;-71
2023/10/19 03:53:58;;;;;;;23.80;14.17;;;;;;;6.64;91.68;94860.31;5064191;28;20167;-71
2023/10/19 03:56:24;;;;;;;24.87;15.27;;;;;;;6.62;91.45;94857.06;5070018;28;20238;-70
2023/10/19 03:58:50;;;;;;;24.80;16.17;;;;;;;6.60;91.56;94851.19;5070290;28;20561;-70
2023/10/19 04:01:17;;;;;;;26.63;16.13;;;;;;;6.60;91.94;94853.00;5070277;28;20197;-70
2023/10/19 04:03:43;;;;;;;23.83;16.37;;;;;;;6.61;92.00;94859.84;5070130;28;20257;-69
2023/10/19 04:06:14;;;;;;;26.97;17.23;;;;;;;6.59;91.42;94859.22;5070142;28;20175;-69
2023/10/19 04:08:40;;;;;;;25.67;16.90;;;;;;;6.57;91.19;94861.25;5069548;28;20646;-70
2023/10/19 04:11:08;;;;;;;31.73;17.97;;;;;;;6.54;91.75;94857.19;5069697;28;20606;-70
2023/10/19 04:13:37;;;;;;;32.60;17.73;;;;;;;6.59;92.04;94859.22;5062219;28;20167;-70
2023/10/19 04:16:02;;;;;;;31.23;19.63;;;;;;;6.57;91.60;94858.63;5049464;28;20577;-70
2023/10/19 04:18:28;;;;;;;33.07;19.27;;;;;;;6.58;92.18;94862.84;5049661;28;20209;-70
2023/10/19 04:23:21;;;;;;;45.63;23.87;;;;;;;6.43;91.22;94848.03;5049576;28;20399;-70
2023/10/19 04:25:47;;;;;;;51.80;24.80;;;;;;;6.53;91.80;94857.38;5049873;28;20199;-70
2023/10/19 04:28:17;;;;;;;45.17;24.77;;;;;;;6.51;91.43;94854.94;5049612;28;20168;-70
2023/10/19 04:30:42;;;;;;;54.47;26.83;;;;;;;6.41;91.25;94847.38;5049436;28;20187;-70
2023/10/19 04:33:09;;;;;;;51.83;25.97;;;;;;;6.47;91.62;94848.47;5049500;28;20181;-70
2023/10/19 04:35:41;;;;;;;59.67;29.53;;;;;;;6.43;91.29;94850.63;5049520;28;20262;-70
2023/10/19 04:38:06;;;;;;;58.90;30.57;;;;;;;6.41;91.37;94849.19;5049404;28;20198;-70
2023/10/19 04:40:32;;;;;;;60.10;28.03;;;;;;;6.36;91.63;94834.06;5049253;28;20337;-70
2023/10/19 04:42:58;;;;;;;53.63;27.73;;;;;;;6.39;92.70;94844.16;5049245;28;20186;-70
2023/10/19 04:45:23;;;;;;;54.17;28.17;;;;;;;6.42;93.02;94849.00;5049553;28;20245;-70
2023/10/19 04:47:52;;;;;;;56.27;28.07;;;;;;;6.40;92.59;94835.31;5047910;28;20222;-70
2023/10/19 04:50:18;;;;;;;60.03;28.97;;;;;;;6.39;92.04;94836.31;5049274;28;20182;-71
2023/10/19 04:52:44;;;;;;;56.50;28.07;;;;;;;6.37;92.35;94832.28;5049356;28;20241;-70
2023/10/19 04:55:09;;;;;;;51.73;28.07;;;;;;;6.23;92.32;94828.69;5049280;28;20257;-71
2023/10/19 04:57:35;;;;;;;52.97;27.43;;;;;;;6.32;92.84;94835.41;5049043;28;20277;-70
2023/10/19 05:00:01;;;;;;;48.90;26.90;;;;;;;6.36;92.30;94846.34;5049171;28;20219;-70
2023/10/19 05:02:26;;;;;;;55.63;30.30;;;;;;;6.27;92.55;94824.72;5047307;28;20414;-70
2023/10/19 05:04:52;;;;;;;49.50;27.83;;;;;;;6.34;92.88;94825.59;5049133;28;20229;-70
2023/10/19 05:07:17;;;;;;;58.47;25.70;;;;;;;6.55;92.60;94835.28;5048941;28;20186;-70
2023/10/19 05:09:44;;;;;;;57.33;28.07;;;;;;;6.59;92.61;94848.78;5048442;28;20182;-70
2023/10/19 05:12:11;;;;;;;47.57;25.43;;;;;;;6.63;92.38;94848.22;5047466;28;20222;-70
2023/10/19 05:14:37;;;;;;;60.87;31.93;;;;;;;6.67;92.79;94849.44;5047642;28;20171;-70
2023/10/19 05:17:04;;;;;;;62.33;28.33;;;;;;;6.61;92.96;94841.56;5047693;28;20170;-70
2023/10/19 05:19:31;;;;;;;52.43;26.87;;;;;;;6.78;93.42;94842.91;5048044;28;20199;-70
2023/10/19 05:21:56;;;;;;;67.30;30.13;;;;;;;6.87;93.28;94843.59;5048306;28;20328;-70
2023/10/19 05:24:22;;;;;;;59.50;29.80;;;;;;;6.87;93.64;94830.53;5048714;28;20277;-70
2023/10/19 05:26:48;;;;;;;58.90;29.80;;;;;;;7.15;94.05;94849.69;5061706;28;20174;-70
2023/10/19 05:29:14;;;;;;;69.00;33.17;;;;;;;7.39;94.34;94848.44;5068905;28;20951;-70
2023/10/19 05:31:39;;;;;;;84.27;34.67;;;;;;;7.63;93.77;94855.03;5069028;28;20528;-71
2023/10/19 05:34:04;;;;;;;69.10;33.97;;;;;;;7.72;93.32;94846.81;5068606;28;20195;-70
2023/10/19 05:36:32;;;;;;;71.50;32.10;;;;;;;8.08;93.58;94857.09;5068606;28;20174;-70
2023/10/19 05:38:57;;;;;;;66.43;31.90;;;;;;;8.41;92.69;94866.91;5068783;28;20677;-70
2023/10/19 05:41:23;;;;;;;48.57;25.20;;;;;;;8.62;91.79;94861.53;5050863;28;20246;-70
2023/10/19 05:43:49;;;;;;;45.77;23.50;;;;;;;8.81;91.06;94862.59;5048630;28;20190;-70
2023/10/19 05:46:18;;;;;;;40.40;23.13;;;;;;;9.04;90.28;94855.94;5048688;28;20179;-70
2023/10/19 05:48:45;;;;;;;44.07;26.30;;;;;;;9.50;88.57;94870.91;5048600;28;20201;-71
2023/10/19 05:51:10;;;;;;;48.87;30.13;;;;;;;9.60;87.08;94875.75;5048826;28;20658;-71
2023/10/19 05:53:37;;;;;;;62.73;33.13;;;;;;;9.57;86.72;94878.78;5048709;28;20179;-70
2023/10/19 05:56:02;;;;;;;62.07;34.83;;;;;;;9.45;86.97;94871.50;5048594;28;20171;-71
2023/10/19 05:58:28;;;;;;;54.63;32.63;;;;;;;9.33;88.07;94865.25;5048421;28;20186;-70
2023/10/19 06:00:58;;;;;;;60.50;34.10;;;;;;;9.30;89.49;94854.34;5048685;28;20174;-71
2023/10/19 06:03:23;;;;;;;56.17;29.50;;;;;;;9.26;90.18;94866.25;5048713;28;20214;-70
2023/10/19 06:05:49;;;;;;;52.63;28.37;;;;;;;9.27;91.05;94865.25;5053173;28;20179;-70
2023/10/19 06:08:14;;;;;;;42.73;24.87;;;;;;;9.34;91.34;94872.09;5068569;28;20239;-70
2023/10/19 06:10:40;;;;;;;39.53;21.47;;;;;;;9.34;90.94;94866.84;5057245;28;20206;-70
2023/10/19 06:13:09;;;;;;;34.70;20.33;;;;;;;9.38;91.14;94862.00;5048042;28;20183;-70
2023/10/19 06:15:35;;;;;;;27.47;15.90;;;;;;;9.34;91.46;94869.47;5052358;28;20179;-70
2023/10/19 06:18:01;;;;;;;29.00;16.90;;;;;;;9.43;91.81;94862.19;5051885;28;20171;-70
2023/10/19 06:20:26;;;;;;;40.13;20.53;;;;;;;9.35;92.17;94862.41;5052217;28;20280;-70
2023/10/19 06:22:53;;;;;;;37.53;20.13;;;;;;;9.38;92.31;94865.44;5052303;28;20545;-70
2023/10/19 06:25:21;;;;;;;36.47;18.57;;;;;;;9.49;91.77;94864.03;5052081;28;20506;-70
2023/10/19 06:27:47;;;;;;;41.07;20.07;;;;;;;9.51;91.78;94851.50;5050815;28;20262;-70
2023/10/19 06:30:17;;;;;;;34.30;17.97;;;;;;;9.47;91.23;94837.16;5052018;28;20646;-70
2023/10/19 06:32:45;;;;;;;35.03;19.73;;;;;;;9.66;91.30;94865.22;5052020;28;20168;-70
2023/10/19 06:35:11;;;;;;;38.07;21.00;;;;;;;9.73;91.20;94862.59;5052054;28;20190;-70
2023/10/19 06:37:37;;;;;;;37.93;21.10;;;;;;;9.79;91.23;94861.75;5051906;28;20178;-70
2023/10/19 06:40:03;;;;;;;45.40;19.70;;;;;;;9.84;91.14;94869.84;5051860;28;20585;-70
2023/10/19 06:42:28;;;;;;;38.77;20.90;;;;;;;9.93;91.31;94870.44;5051820;28;20269;-70
2023/10/19 06:44:55;;;;;;;36.77;18.80;;;;;;;10.02;91.30;94877.91;5051763;28;20167;-70
2023/10/19 06:47:22;;;;;;;40.63;21.53;;;;;;;10.07;91.28;94864.13;5052575;28;20183;-70
2023/10/19 06:49:48;;;;;;;37.70;19.87;;;;;;;10.26;91.46;94868.53;5051598;28;20250;-70
2023/10/19 06:52:13;;;;;;;29.93;17.63;;;;;;;10.34;91.27;94854.34;5051783;28;20271;-70
2023/10/19 06:54:40;;;;;;;35.00;17.57;;;;;;;10.55;90.07;94861.94;5051643;28;20175;-71
2023/10/19 06:57:07;;;;;;;34.17;18.47;;;;;;;10.65;88.54;94859.63;5051408;28;20206;-71
2023/10/19 06:59:33;;;;;;;32.70;14.57;;;;;;;10.77;87.26;94855.31;5051569;28;20198;-72
2023/10/19 07:02:01;;;;;;;22.67;14.37;;;;;;;10.84;86.46;94850.00;5051252;28;20171;-71
2023/10/19 07:04:26;;;;;;;23.53;14.50;;;;;;;11.11;86.49;94851.44;5051403;28;20556;-72
2023/10/19 07:06:53;;;;;;;21.70;13.37;;;;;;;11.15;83.58;94855.28;5051441;28;20178;-72
2023/10/19 07:09:19;;;;;;;25.27;12.73;;;;;;;11.18;82.65;94865.38;5050020;28;20176;-72
2023/10/19 07:11:44;;;;;;;19.87;12.77;;;;;;;11.35;83.47;94865.66;5051264;28;20220;-72
2023/10/19 07:14:12;;;;;;;19.87;12.53;;;;;;;11.51;84.23;94869.56;5050325;28;20266;-72
2023/10/19 07:16:40;;;;;;;25.37;11.43;;;;;;;11.65;82.46;94866.63;5051273;28;20175;-72
2023/10/19 07:19:05;;;;;;;18.23;10.97;;;;;;;11.80;81.86;94861.03;5051127;28;20572;-71
2023/10/19 07:21:35;;;;;;;22.80;10.60;;;;;;;11.53;80.15;94863.06;5050914;28;20189;-72
2023/10/19 07:24:05;;;;;;;17.53;11.33;;;;;;;11.46;81.41;94864.16;5052926;28;20222;-71
2023/10/19 07:26:33;;;;;;;26.67;12.23;;;;;;;11.58;81.96;94855.34;5067238;28;20639;-71
2023/10/19 07:28:59;;;;;;;22.23;11.30;;;;;;;11.88;81.94;94862.56;5051074;28;20179;-71
2023/10/19 07:31:27;;;;;;;21.20;12.23;;;;;;;12.15;81.23;94869.19;5051159;28;20295;-71
2023/10/19 07:33:55;;;;;;;23.70;11.47;;;;;;;12.40;79.88;94872.56;5050880;28;20175;-71
2023/10/19 07:36:21;;;;;;;21.77;12.50;;;;;;;12.57;78.54;94875.41;5050736;28;20176;-71
2023/10/19 07:38:47;;;;;;;26.33;10.87;;;;;;;12.60;77.97;94880.25;5050814;28;20214;-71
2023/10/19 07:41:13;;;;;;;24.50;11.20;;;;;;;12.27;78.45;94875.38;5050986;28;20175;-72
2023/10/19 07:43:39;;;;;;;19.00;12.00;;;;;;;12.38;80.03;94877.25;5050745;28;20560;-71
2023/10/19 07:46:04;;;;;;;24.53;12.07;;;;;;;12.49;79.41;94878.34;5059068;28;20174;-72
2023/10/19 07:48:30;;;;;;;19.90;12.97;;;;;;;12.83;80.70;94874.25;5049108;28;20167;-72
2023/10/19 07:50:55;;;;;;;30.30;16.93;;;;;;;13.47;79.63;94878.03;5052825;28;20179;-71
2023/10/19 07:53:22;;;;;;;30.47;15.90;;;;;;;14.15;78.21;94880.09;5063481;28;20170;-71
2023/10/19 07:55:47;;;;;;;25.73;15.23;;;;;;;14.66;74.64;94887.28;5052148;28;20246;-70
2023/10/19 07:58:13;;;;;;;28.10;14.87;;;;;;;15.09;72.36;94892.06;5063532;28;20349;-70
2023/10/19 08:00:38;;;;;;;28.83;14.90;;;;;;;15.48;72.17;94874.44;5052060;28;20698;-69
2023/10/19 08:03:05;;;;;;;26.50;14.43;;;;;;;15.92;68.89;94870.13;5053357;28;20171;-70
2023/10/19 08:05:32;;;;;;;19.40;12.20;;;;;;;16.31;65.25;94880.75;5064703;28;20197;-70
2023/10/19 08:07:58;;;;;;;19.13;12.83;;;;;;;16.53;66.74;94879.72;5052164;28;20173;-71
2023/10/19 08:10:25;;;;;;;22.50;13.05;;;;;;;16.87;65.93;94877.75;5062107;28;20175;-71
2023/10/19 08:12:51;;;;;;;19.77;12.70;;;;;;;17.05;64.67;94870.50;5059207;28;20261;-71
2023/10/19 08:15:20;;;;;;;16.80;11.52;;;;;;;17.27;62.39;94877.41;5054760;28;20178;-71
2023/10/19 08:17:50;;;;;;;17.65;10.50;;;;;;;17.24;60.83;94882.41;5058488;28;20182;-71
2023/10/19 08:20:16;;;;;;;19.45;12.98;;;;;;;17.20;61.92;94868.03;5056661;28;20202;-71
2023/10/19 08:22:48;;;;;;;23.52;13.23;;;;;;;17.24;61.05;94872.56;5053078;28;20175;-71
2023/10/19 08:25:17;;;;;;;19.95;11.60;;;;;;;17.08;62.32;94868.16;5048450;28;20178;-71
2023/10/19 08:27:49;;;;;;;19.48;11.27;;;;;;;17.18;62.15;94870.91;5049642;28;20696;-71
2023/10/19 08:30:17;;;;;;;16.27;11.85;;;;;;;17.20;60.53;94873.34;5049693;28;20174;-71
2023/10/19 08:32:47;;;;;;;24.15;12.88;;;;;;;17.42;61.94;94875.94;5049496;28;20178;-71
2023/10/19 08:35:14;;;;;;;18.48;12.05;;;;;;;17.41;61.08;94874.31;5048811;28;20167;-71
2023/10/19 08:37:39;;;;;;;21.35;12.18;;;;;;;17.45;59.80;94854.94;5047619;28;20205;-71
2023/10/19 08:40:15;;;;;;;18.67;10.85;;;;;;;17.48;60.60;94867.72;5049692;28;20194;-71
2023/10/19 08:42:45;;;;;;;20.58;11.13;;;;;;;17.43;59.78;94851.72;5054479;28;20168;-71
2023/10/19 08:45:14;;;;;;;17.55;11.60;;;;;;;17.24;59.69;94869.91;5069665;28;20265;-71
2023/10/19 08:47:59;;;;;;;21.15;11.15;;;;;;;16.91;61.76;94865.59;5057742;28;20250;-71
2023/10/19 08:50:29;;;;;;;15.98;10.93;;;;;;;16.75;61.19;94869.13;5049295;28;20178;-71
2023/10/19 08:52:59;;;;;;;17.38;10.20;;;;;;;16.69;62.10;94872.75;5054923;28;20170;-71
2023/10/19 08:55:34;;;;;;;16.10;10.65;;;;;;;16.74;61.82;94869.38;5069294;28;20261;-71
2023/10/19 08:58:05;;;;;;;16.92;10.20;;;;;;;17.02;62.25;94873.69;5049996;28;20210;-71
2023/10/19 09:00:46;;;;;;;17.90;10.88;;;;;;;17.18;60.44;94859.47;5047848;28;20203;-71
2023/10/19 09:03:13;;;;;;;15.80;10.50;;;;;;;17.27;59.49;94863.28;5060844;28;20197;-71
2023/10/19 09:05:40;;;;;;;18.00;9.73;;;;;;;17.44;60.64;94852.53;5068083;28;20174;-71
2023/10/19 09:08:06;;;;;;;17.42;10.80;;;;;;;17.58;59.43;94849.19;5067391;28;20174;-72
2023/10/19 09:10:32;;;;;;;35.45;11.40;;;;;;;17.14;58.92;94843.19;5068459;28;20188;-71
2023/10/19 09:13:12;;;;;;;19.35;10.77;;;;;;;17.06;60.77;94845.50;5068632;28;20232;-72
2023/10/19 09:15:39;;;;;;;20.92;11.73;;;;;;;16.90;60.55;94844.56;5047202;28;20159;-72
2023/10/19 09:18:18;;;;;;;17.60;10.60;;;;;;;16.81;60.94;94828.25;5047624;28;20289;-72
2023/10/19 09:23:41;;;;;;;15.35;8.43;;;;;;;16.53;61.19;94817.78;5042902;28;20201;-72
2023/10/19 09:26:07;;;;;;;16.52;9.48;;;;;;;16.44;61.24;94814.78;5046999;28;20174;-72
2023/10/19 09:28:37;;;;;;;10.43;7.23;;;;;;;16.48;61.43;94818.56;5047378;28;20456;-72
2023/10/19 09:31:04;;;;;;;12.23;7.73;;;;;;;16.38;61.62;94823.75;5047423;28;20607;-72
2023/10/19 09:33:33;;;;;;;9.80;7.00;;;;;;;16.20;61.94;94810.75;5048094;28;20206;-72
2023/10/19 09:36:01;;;;;;;9.53;6.53;;;;;;;15.90;62.90;94800.56;5048092;28;20171;-72
2023/10/19 09:38:27;;;;;;;10.75;7.22;;;;;;;15.87;62.98;94798.38;5067199;28;20179;-72
2023/10/19 09:40:56;;;;;;;11.90;7.07;;;;;;;15.89;63.28;94798.13;5066712;28;20166;-72
2023/10/19 09:43:30;;;;;;;9.82;7.03;;;;;;;15.97;63.51;94792.41;5066917;28;20856;-72
2023/10/19 09:46:00;;;;;;;12.00;6.80;;;;;;;15.94;63.55;94790.22;5066992;28;20206;-72
2023/10/19 09:48:26;;;;;;;10.57;7.30;;;;;;;15.66;64.42;94796.47;5069394;28;20509;-72
2023/10/19 09:50:55;;;;;;;10.70;6.70;;;;;;;15.62;64.93;94790.84;5071398;28;20253;-72
2023/10/19 09:53:28;;;;;;;12.77;6.70;;;;;;;15.56;65.19;94783.88;5070918;28;20205;-72
2023/10/19 09:55:57;;;;;;;11.40;7.13;;;;;;;15.60;64.91;94792.94;5053333;28;20701;-71
2023/10/19 09:58:37;;;;;;;10.17;7.30;;;;;;;15.57;65.57;94776.72;5052114;28;20349;-72
2023/10/19 10:01:03;;;;;;;11.23;7.03;;;;;;;15.64;64.77;94770.19;5051423;28;20249;-72
2023/10/19 10:03:46;;;;;;;8.80;6.43;;;;;;;15.65;64.58;94763.03;5048958;28;20681;-71
2023/10/19 10:06:18;;;;;;;10.17;6.83;;;;;;;15.71;64.85;94775.31;5052271;28;20182;-71
2023/10/19 10:08:47;;;;;;;12.80;7.00;;;;;;;15.74;64.74;94764.22;5052393;28;20206;-71
2023/10/19 10:11:21;;;;;;;11.80;6.90;;;;;;;15.74;65.54;94770.31;5051955;28;20179;-71
2023/10/19 10:13:51;;;;;;;11.73;6.30;;;;;;;15.85;64.86;94776.56;5052283;28;20244;-71
2023/10/19 10:16:28;;;;;;;9.37;6.20;;;;;;;16.02;64.53;94773.88;5051225;28;20190;-71
2023/10/19 10:18:59;;;;;;;15.00;6.75;;;;;;;16.13;63.34;94765.00;5052318;28;20256;-71
2023/10/19 10:21:26;;;;;;;10.80;6.55;;;;;;;16.27;64.89;94754.78;5052154;28;20179;-71
2023/10/19 10:24:00;;;;;;;9.88;7.10;;;;;;;16.52;64.36;94755.06;5052427;28;20198;-71
2023/10/19 10:26:29;;;;;;;12.73;7.65;;;;;;;16.73;62.36;94758.78;5052513;28;20174;-71
2023/10/19 10:29:23;;;;;;;10.68;7.65;;;;;;;16.78;62.38;94741.00;5051675;28;20194;-71
2023/10/19 10:31:50;;;;;;;9.55;7.13;;;;;;;16.83;62.32;94741.06;5051337;28;20187;-71
2023/10/19 10:34:36;;;;;;;10.65;7.45;;;;;;;16.53;63.07;94732.75;5050803;28;20650;-71
2023/10/19 10:37:07;;;;;;;10.43;7.43;;;;;;;16.51;63.42;94730.38;5051812;28;20178;-71
2023/10/19 10:39:38;;;;;;;13.52;7.35;;;;;;;16.50;63.18;94715.47;5051710;28;20191;-71
2023/10/19 10:42:06;;;;;;;10.23;6.23;;;;;;;16.41;63.32;94710.84;5061783;28;20178;-71
2023/10/19 10:44:55;;;;;;;12.20;6.90;;;;;;;16.49;63.54;94699.78;5068768;28;20181;-71
2023/10/19 10:47:22;;;;;;;12.07;6.85;;;;;;;16.56;64.77;94692.38;5050901;28;20237;-71
2023/10/19 10:49:54;;;;;;;9.15;6.15;;;;;;;16.69;64.24;94692.00;5051463;28;20179;-71
2023/10/19 10:52:37;;;;;;;10.88;6.60;;;;;;;16.79;62.74;94680.66;5050519;28;20190;-71
2023/10/19 10:55:11;;;;;;;9.10;6.50;;;;;;;16.80;63.12;94687.56;5050705;28;20186;-72
2023/10/19 10:57:37;;;;;;;13.15;6.28;;;;;;;16.73;62.94;94673.69;5051411;28;20726;-71
2023/10/19 11:00:22;;;;;;;10.82;6.30;;;;;;;16.81;62.96;94668.72;5050669;28;20609;-71
2023/10/19 11:03:00;;;;;;;8.48;5.72;;;;;;;16.75;62.77;94671.59;5051682;28;20202;-71
2023/10/19 11:05:26;;;;;;;7.60;5.97;;;;;;;16.79;62.89;94654.88;5051422;28;20642;-72
2023/10/19 11:08:20;;;;;;;13.43;6.57;;;;;;;16.95;62.66;94658.47;5051422;28;20261;-72
2023/10/19 11:10:46;;;;;;;7.78;5.82;;;;;;;16.99;62.09;94659.56;5051231;28;20167;-71
2023/10/19 11:13:14;;;;;;;12.07;6.32;;;;;;;17.05;62.27;94655.06;5051087;28;20178;-72
2023/10/19 11:15:49;;;;;;;12.20;6.20;;;;;;;17.09;62.64;94656.97;5049924;28;20174;-71
2023/10/19 11:18:43;;;;;;;8.90;5.78;;;;;;;17.18;61.96;94651.97;5049406;28;20609;-72
2023/10/19 11:21:14;;;;;;;13.57;6.20;;;;;;;17.29;62.26;94653.63;5050933;28;20171;-70
2023/10/19 11:23:46;;;;;;;6.20;4.78;;;;;;;17.35;61.61;94644.63;5050009;28;20654;-71
2023/10/19 11:26:14;;;;;;;11.63;5.72;;;;;;;17.35;61.60;94641.97;5049499;28;20507;-71
2023/10/19 11:28:46;;;;;;;7.35;5.68;;;;;;;17.28;61.28;94641.38;5048357;28;20175;-72
2023/10/19 11:31:12;;;;;;;7.40;5.57;;;;;;;17.27;62.28;94631.81;5048130;28;20167;-71
2023/10/19 11:33:38;;;;;;;9.43;5.63;;;;;;;17.31;61.67;94627.56;5048791;28;20175;-71
2023/10/19 11:36:04;;;;;;;7.63;5.25;;;;;;;17.39;61.61;94621.75;5048619;28;20988;-71
2023/10/19 11:38:30;;;;;;;9.18;4.90;;;;;;;17.48;61.51;94620.19;5048770;28;20249;-70
2023/10/19 11:40:56;;;;;;;8.38;5.68;;;;;;;17.56;61.71;94619.69;5048261;28;20277;-70
2023/10/19 11:43:21;;;;;;;12.00;6.43;;;;;;;17.58;61.28;94603.47;5048067;28;20626;-70
2023/10/19 11:45:46;;;;;;;7.82;5.63;;;;;;;17.60;61.61;94609.34;5047829;28;20646;-70
2023/10/19 11:48:12;;;;;;;6.80;5.13;;;;;;;17.64;61.79;94618.44;5047748;28;20579;-70
2023/10/19 11:50:37;;;;;;;8.75;4.93;;;;;;;17.69;61.77;94611.28;5047769;28;20194;-71